KTRM/TRM METAR and TAF weather

Enter ICAO airport designator
Station Type Date Time Source
KTRM METAR 2020/11/27 13:52 UTC NOAA

KTRM 271352Z AUTO 29007KT 10SM CLR 12/M13 A3018 RMK AO2 SLP219 T01221128 $


Station Type Date Time Source
KTRM Decoded METAR 2020/11/27 13:52 UTC NOAA

Palm Springs, Jacqueline Cochran Regional Airport, CA, United States (KTRM) 33-37-36N 116-09-34W
Nov 27, 2020 - 08:52 AM EST / 2020.11.27 1352 UTC
Wind: from the WNW (290 degrees) at 8 MPH (7 KT):0
Visibility: 10 mile(s):0
Sky conditions: clear
Temperature: 54.0 F (12.2 C)
Dew Point: 9.0 F (-12.8 C)
Relative Humidity: 16%
Pressure (altimeter): 30.18 in. Hg (1022 hPa)
ob: KTRM 271352Z AUTO 29007KT 10SM CLR 12/M13 A3018 RMK AO2 SLP219 T01221128
cycle: 14

Station Type Date Time Source
KTRM TAF 2020/11/27 12:30 UTC NOAA

TAF KTRM 271128Z 2712/2812 32011KT P6SM SKC
FM272100 32007KT P6SM SKC
FM280200 32004KT P6SM SKC

Example: see airport list